sensor_id;sensor_type;location;lat;lon;timestamp;P1;durP1;ratioP1;P2;durP2;ratioP2
62903;SDS011;49000;50.698;13.322;2024-03-08T00:01:35;25.90;;;15.17;;
62903;SDS011;49000;50.698;13.322;2024-03-08T00:04:00;26.83;;;14.90;;
62903;SDS011;49000;50.698;13.322;2024-03-08T00:06:26;30.97;;;16.50;;
62903;SDS011;49000;50.698;13.322;2024-03-08T00:08:51;25.60;;;14.93;;
62903;SDS011;49000;50.698;13.322;2024-03-08T00:11:17;28.07;;;15.30;;
62903;SDS011;49000;50.698;13.322;2024-03-08T00:13:42;23.23;;;14.57;;
62903;SDS011;49000;50.698;13.322;2024-03-08T00:16:09;26.23;;;15.13;;
62903;SDS011;49000;50.698;13.322;2024-03-08T00:18:35;26.27;;;15.43;;
62903;SDS011;49000;50.698;13.322;2024-03-08T00:21:00;28.70;;;15.63;;
62903;SDS011;49000;50.698;13.322;2024-03-08T00:23:26;27.23;;;15.43;;
62903;SDS011;49000;50.698;13.322;2024-03-08T00:25:53;28.43;;;15.53;;
62903;SDS011;49000;50.698;13.322;2024-03-08T00:28:19;25.67;;;14.90;;
62903;SDS011;49000;50.698;13.322;2024-03-08T00:30:45;27.23;;;15.03;;
62903;SDS011;49000;50.698;13.322;2024-03-08T00:33:11;27.20;;;14.30;;
62903;SDS011;49000;50.698;13.322;2024-03-08T00:35:37;30.73;;;16.03;;
62903;SDS011;49000;50.698;13.322;2024-03-08T00:38:02;26.33;;;14.97;;
62903;SDS011;49000;50.698;13.322;2024-03-08T00:40:28;26.33;;;14.80;;
62903;SDS011;49000;50.698;13.322;2024-03-08T00:42:53;26.90;;;15.17;;
62903;SDS011;49000;50.698;13.322;2024-03-08T00:45:19;28.13;;;15.07;;
62903;SDS011;49000;50.698;13.322;2024-03-08T00:47:44;24.90;;;14.13;;
62903;SDS011;49000;50.698;13.322;2024-03-08T00:50:10;30.67;;;14.43;;
62903;SDS011;49000;50.698;13.322;2024-03-08T00:52:36;27.77;;;15.27;;
62903;SDS011;49000;50.698;13.322;2024-03-08T00:55:02;27.73;;;14.73;;
62903;SDS011;49000;50.698;13.322;2024-03-08T00:57:29;26.00;;;15.33;;
62903;SDS011;49000;50.698;13.322;2024-03-08T00:59:55;30.57;;;15.83;;
62903;SDS011;49000;50.698;13.322;2024-03-08T01:02:21;27.93;;;15.13;;
62903;SDS011;49000;50.698;13.322;2024-03-08T01:04:48;24.77;;;14.37;;
62903;SDS011;49000;50.698;13.322;2024-03-08T01:07:13;28.40;;;14.50;;
62903;SDS011;49000;50.698;13.322;2024-03-08T01:09:39;26.00;;;13.93;;
62903;SDS011;49000;50.698;13.322;2024-03-08T01:12:04;28.33;;;14.73;;
62903;SDS011;49000;50.698;13.322;2024-03-08T01:14:32;30.47;;;17.23;;
62903;SDS011;49000;50.698;13.322;2024-03-08T01:16:58;28.77;;;14.77;;
62903;SDS011;49000;50.698;13.322;2024-03-08T01:19:24;30.17;;;15.23;;
62903;SDS011;49000;50.698;13.322;2024-03-08T01:21:49;26.93;;;13.97;;
62903;SDS011;49000;50.698;13.322;2024-03-08T01:24:16;26.97;;;14.20;;
62903;SDS011;49000;50.698;13.322;2024-03-08T01:26:41;25.97;;;13.90;;
62903;SDS011;49000;50.698;13.322;2024-03-08T01:29:07;26.23;;;13.80;;
62903;SDS011;49000;50.698;13.322;2024-03-08T01:31:33;27.20;;;14.17;;
62903;SDS011;49000;50.698;13.322;2024-03-08T01:33:58;29.60;;;15.13;;
62903;SDS011;49000;50.698;13.322;2024-03-08T01:36:24;28.27;;;14.50;;
62903;SDS011;49000;50.698;13.322;2024-03-08T01:38:50;28.33;;;14.80;;
62903;SDS011;49000;50.698;13.322;2024-03-08T01:41:16;26.27;;;13.90;;
62903;SDS011;49000;50.698;13.322;2024-03-08T01:43:42;31.27;;;16.10;;
62903;SDS011;49000;50.698;13.322;2024-03-08T01:46:09;27.83;;;14.70;;
62903;SDS011;49000;50.698;13.322;2024-03-08T01:48:36;27.20;;;15.37;;
62903;SDS011;49000;50.698;13.322;2024-03-08T01:51:02;28.27;;;15.07;;
62903;SDS011;49000;50.698;13.322;2024-03-08T01:53:27;25.43;;;14.07;;
62903;SDS011;49000;50.698;13.322;2024-03-08T01:55:55;26.47;;;14.57;;
62903;SDS011;49000;50.698;13.322;2024-03-08T01:58:22;26.17;;;14.60;;
62903;SDS011;49000;50.698;13.322;2024-03-08T02:00:48;33.37;;;16.37;;
62903;SDS011;49000;50.698;13.322;2024-03-08T02:03:15;28.80;;;15.63;;
62903;SDS011;49000;50.698;13.322;2024-03-08T02:05:41;29.97;;;15.20;;
62903;SDS011;49000;50.698;13.322;2024-03-08T02:08:06;31.40;;;16.67;;
62903;SDS011;49000;50.698;13.322;2024-03-08T02:10:37;29.43;;;16.07;;
62903;SDS011;49000;50.698;13.322;2024-03-08T02:13:03;29.40;;;16.30;;
62903;SDS011;49000;50.698;13.322;2024-03-08T02:18:20;28.80;;;14.57;;
62903;SDS011;49000;50.698;13.322;2024-03-08T02:20:52;29.13;;;15.53;;
62903;SDS011;49000;50.698;13.322;2024-03-08T02:23:21;28.33;;;15.43;;
62903;SDS011;49000;50.698;13.322;2024-03-08T02:25:48;37.23;;;17.73;;
62903;SDS011;49000;50.698;13.322;2024-03-08T02:28:14;34.97;;;16.80;;
62903;SDS011;49000;50.698;13.322;2024-03-08T02:30:40;32.67;;;17.00;;
62903;SDS011;49000;50.698;13.322;2024-03-08T02:33:06;31.80;;;16.13;;
62903;SDS011;49000;50.698;13.322;2024-03-08T02:35:32;32.47;;;16.23;;
62903;SDS011;49000;50.698;13.322;2024-03-08T02:37:58;33.33;;;17.10;;
62903;SDS011;49000;50.698;13.322;2024-03-08T02:40:24;30.57;;;16.67;;
62903;SDS011;49000;50.698;13.322;2024-03-08T02:42:50;30.47;;;16.03;;
62903;SDS011;49000;50.698;13.322;2024-03-08T02:45:15;34.47;;;17.13;;
62903;SDS011;49000;50.698;13.322;2024-03-08T02:47:41;30.00;;;15.50;;
62903;SDS011;49000;50.698;13.322;2024-03-08T02:50:06;32.07;;;16.77;;
62903;SDS011;49000;50.698;13.322;2024-03-08T02:52:34;35.83;;;17.23;;
62903;SDS011;49000;50.698;13.322;2024-03-08T02:55:00;31.27;;;15.97;;
62903;SDS011;49000;50.698;13.322;2024-03-08T02:57:31;32.07;;;15.67;;
62903;SDS011;49000;50.698;13.322;2024-03-08T02:59:57;32.73;;;16.67;;
62903;SDS011;49000;50.698;13.322;2024-03-08T03:02:24;37.53;;;18.27;;
62903;SDS011;49000;50.698;13.322;2024-03-08T03:04:51;29.70;;;16.03;;
62903;SDS011;49000;50.698;13.322;2024-03-08T03:07:17;31.20;;;15.90;;
62903;SDS011;49000;50.698;13.322;2024-03-08T03:09:42;31.13;;;15.70;;
62903;SDS011;49000;50.698;13.322;2024-03-08T03:12:08;32.23;;;16.07;;
62903;SDS011;49000;50.698;13.322;2024-03-08T03:14:34;34.30;;;16.43;;
62903;SDS011;49000;50.698;13.322;2024-03-08T03:17:03;34.73;;;17.23;;
62903;SDS011;49000;50.698;13.322;2024-03-08T03:19:29;32.23;;;16.00;;
62903;SDS011;49000;50.698;13.322;2024-03-08T03:21:55;35.83;;;18.47;;
62903;SDS011;49000;50.698;13.322;2024-03-08T03:24:20;37.57;;;18.70;;
62903;SDS011;49000;50.698;13.322;2024-03-08T03:26:46;34.17;;;16.93;;
62903;SDS011;49000;50.698;13.322;2024-03-08T03:29:13;32.70;;;15.73;;
62903;SDS011;49000;50.698;13.322;2024-03-08T03:31:40;32.80;;;16.63;;
62903;SDS011;49000;50.698;13.322;2024-03-08T03:34:06;32.67;;;17.37;;
62903;SDS011;49000;50.698;13.322;2024-03-08T03:36:33;29.67;;;16.10;;
62903;SDS011;49000;50.698;13.322;2024-03-08T03:39:01;30.10;;;15.87;;
62903;SDS011;49000;50.698;13.322;2024-03-08T03:41:37;32.60;;;16.67;;
62903;SDS011;49000;50.698;13.322;2024-03-08T03:44:03;29.07;;;14.77;;
62903;SDS011;49000;50.698;13.322;2024-03-08T03:46:30;31.00;;;15.23;;
62903;SDS011;49000;50.698;13.322;2024-03-08T03:48:55;28.87;;;15.23;;
62903;SDS011;49000;50.698;13.322;2024-03-08T03:51:21;32.63;;;14.97;;
62903;SDS011;49000;50.698;13.322;2024-03-08T03:53:47;28.07;;;16.00;;
62903;SDS011;49000;50.698;13.322;2024-03-08T03:56:12;29.90;;;14.47;;
62903;SDS011;49000;50.698;13.322;2024-03-08T03:58:38;29.10;;;15.70;;
62903;SDS011;49000;50.698;13.322;2024-03-08T04:01:04;26.87;;;15.23;;
62903;SDS011;49000;50.698;13.322;2024-03-08T04:03:30;33.13;;;16.27;;
62903;SDS011;49000;50.698;13.322;2024-03-08T04:05:56;30.33;;;14.67;;
62903;SDS011;49000;50.698;13.322;2024-03-08T04:08:21;30.27;;;15.10;;
62903;SDS011;49000;50.698;13.322;2024-03-08T04:10:48;27.43;;;14.73;;
62903;SDS011;49000;50.698;13.322;2024-03-08T04:13:14;35.37;;;16.67;;
62903;SDS011;49000;50.698;13.322;2024-03-08T04:15:40;35.07;;;16.30;;
62903;SDS011;49000;50.698;13.322;2024-03-08T04:18:06;30.90;;;16.00;;
62903;SDS011;49000;50.698;13.322;2024-03-08T04:20:31;27.03;;;14.53;;
62903;SDS011;49000;50.698;13.322;2024-03-08T04:22:57;32.47;;;15.47;;
62903;SDS011;49000;50.698;13.322;2024-03-08T04:25:24;27.30;;;14.73;;
62903;SDS011;49000;50.698;13.322;2024-03-08T04:27:49;30.20;;;15.83;;
62903;SDS011;49000;50.698;13.322;2024-03-08T04:30:17;31.67;;;17.10;;
62903;SDS011;49000;50.698;13.322;2024-03-08T04:32:42;29.03;;;15.73;;
62903;SDS011;49000;50.698;13.322;2024-03-08T04:35:08;30.23;;;15.33;;
62903;SDS011;49000;50.698;13.322;2024-03-08T04:37:34;35.23;;;16.53;;
62903;SDS011;49000;50.698;13.322;2024-03-08T04:39:59;29.93;;;15.97;;
62903;SDS011;49000;50.698;13.322;2024-03-08T04:42:25;33.13;;;16.83;;
62903;SDS011;49000;50.698;13.322;2024-03-08T04:44:55;34.43;;;18.50;;
62903;SDS011;49000;50.698;13.322;2024-03-08T04:47:20;34.13;;;16.83;;
62903;SDS011;49000;50.698;13.322;2024-03-08T04:49:46;36.17;;;17.37;;
62903;SDS011;49000;50.698;13.322;2024-03-08T04:52:11;35.60;;;17.73;;
62903;SDS011;49000;50.698;13.322;2024-03-08T04:54:37;34.70;;;17.50;;
62903;SDS011;49000;50.698;13.322;2024-03-08T04:57:02;37.27;;;17.30;;
62903;SDS011;49000;50.698;13.322;2024-03-08T04:59:29;33.90;;;16.60;;
62903;SDS011;49000;50.698;13.322;2024-03-08T05:01:55;33.00;;;16.97;;
62903;SDS011;49000;50.698;13.322;2024-03-08T05:04:21;32.10;;;16.80;;
62903;SDS011;49000;50.698;13.322;2024-03-08T05:06:47;36.67;;;17.53;;
62903;SDS011;49000;50.698;13.322;2024-03-08T05:09:13;41.63;;;20.23;;
62903;SDS011;49000;50.698;13.322;2024-03-08T05:11:39;40.10;;;20.43;;
62903;SDS011;49000;50.698;13.322;2024-03-08T05:14:05;41.00;;;19.87;;
62903;SDS011;49000;50.698;13.322;2024-03-08T05:16:31;43.20;;;20.43;;
62903;SDS011;49000;50.698;13.322;2024-03-08T05:18:56;41.50;;;19.53;;
62903;SDS011;49000;50.698;13.322;2024-03-08T05:21:22;38.33;;;19.80;;
62903;SDS011;49000;50.698;13.322;2024-03-08T05:23:48;40.57;;;20.73;;
62903;SDS011;49000;50.698;13.322;2024-03-08T05:26:15;42.33;;;19.87;;
62903;SDS011;49000;50.698;13.322;2024-03-08T05:28:41;41.73;;;21.43;;
62903;SDS011;49000;50.698;13.322;2024-03-08T05:31:06;42.97;;;22.23;;
62903;SDS011;49000;50.698;13.322;2024-03-08T05:33:32;44.37;;;20.93;;
62903;SDS011;49000;50.698;13.322;2024-03-08T05:35:59;47.33;;;22.50;;
62903;SDS011;49000;50.698;13.322;2024-03-08T05:38:25;42.70;;;21.70;;
62903;SDS011;49000;50.698;13.322;2024-03-08T05:40:51;44.60;;;22.03;;
62903;SDS011;49000;50.698;13.322;2024-03-08T05:43:16;44.83;;;22.13;;
62903;SDS011;49000;50.698;13.322;2024-03-08T05:45:44;41.73;;;21.67;;
62903;SDS011;49000;50.698;13.322;2024-03-08T05:48:10;40.87;;;21.63;;
62903;SDS011;49000;50.698;13.322;2024-03-08T05:50:37;41.23;;;21.27;;
62903;SDS011;49000;50.698;13.322;2024-03-08T05:53:03;44.43;;;21.70;;
62903;SDS011;49000;50.698;13.322;2024-03-08T05:55:31;41.30;;;19.80;;
62903;SDS011;49000;50.698;13.322;2024-03-08T05:58:00;39.10;;;20.43;;
62903;SDS011;49000;50.698;13.322;2024-03-08T06:00:26;37.60;;;19.70;;
62903;SDS011;49000;50.698;13.322;2024-03-08T06:02:52;34.57;;;19.10;;
62903;SDS011;49000;50.698;13.322;2024-03-08T06:05:17;35.97;;;19.13;;
62903;SDS011;49000;50.698;13.322;2024-03-08T06:07:43;38.83;;;19.73;;
62903;SDS011;49000;50.698;13.322;2024-03-08T06:10:11;39.07;;;19.63;;
62903;SDS011;49000;50.698;13.322;2024-03-08T06:12:38;40.37;;;21.30;;
62903;SDS011;49000;50.698;13.322;2024-03-08T06:15:07;37.93;;;19.93;;
62903;SDS011;49000;50.698;13.322;2024-03-08T06:17:39;43.00;;;20.87;;
62903;SDS011;49000;50.698;13.322;2024-03-08T06:20:05;36.80;;;18.80;;
62903;SDS011;49000;50.698;13.322;2024-03-08T06:22:37;37.43;;;19.20;;
62903;SDS011;49000;50.698;13.322;2024-03-08T06:25:05;38.80;;;20.40;;
62903;SDS011;49000;50.698;13.322;2024-03-08T06:27:31;37.07;;;18.33;;
62903;SDS011;49000;50.698;13.322;2024-03-08T06:29:58;33.20;;;17.97;;
62903;SDS011;49000;50.698;13.322;2024-03-08T06:32:24;40.70;;;20.47;;
62903;SDS011;49000;50.698;13.322;2024-03-08T06:34:50;37.80;;;18.93;;
62903;SDS011;49000;50.698;13.322;2024-03-08T06:37:16;49.10;;;24.10;;
62903;SDS011;49000;50.698;13.322;2024-03-08T06:39:46;49.73;;;24.93;;
62903;SDS011;49000;50.698;13.322;2024-03-08T06:42:16;51.80;;;25.27;;
62903;SDS011;49000;50.698;13.322;2024-03-08T06:44:42;63.17;;;28.80;;
62903;SDS011;49000;50.698;13.322;2024-03-08T06:47:14;89.33;;;39.60;;
62903;SDS011;49000;50.698;13.322;2024-03-08T06:49:41;66.83;;;33.50;;
62903;SDS011;49000;50.698;13.322;2024-03-08T06:52:12;62.53;;;30.07;;
62903;SDS011;49000;50.698;13.322;2024-03-08T06:54:37;52.50;;;25.73;;
62903;SDS011;49000;50.698;13.322;2024-03-08T06:57:03;49.70;;;24.83;;
62903;SDS011;49000;50.698;13.322;2024-03-08T06:59:30;64.50;;;33.43;;
62903;SDS011;49000;50.698;13.322;2024-03-08T07:01:55;49.47;;;23.60;;
62903;SDS011;49000;50.698;13.322;2024-03-08T07:04:21;47.40;;;24.40;;
62903;SDS011;49000;50.698;13.322;2024-03-08T07:06:49;43.90;;;23.10;;
62903;SDS011;49000;50.698;13.322;2024-03-08T07:09:15;46.37;;;24.03;;
62903;SDS011;49000;50.698;13.322;2024-03-08T07:11:41;42.83;;;23.83;;
62903;SDS011;49000;50.698;13.322;2024-03-08T07:14:07;42.20;;;22.40;;
62903;SDS011;49000;50.698;13.322;2024-03-08T07:16:33;40.73;;;21.83;;
62903;SDS011;49000;50.698;13.322;2024-03-08T07:19:00;41.40;;;21.93;;
62903;SDS011;49000;50.698;13.322;2024-03-08T07:21:26;42.27;;;21.07;;
62903;SDS011;49000;50.698;13.322;2024-03-08T07:23:51;41.10;;;21.77;;
62903;SDS011;49000;50.698;13.322;2024-03-08T07:26:23;41.87;;;22.33;;
62903;SDS011;49000;50.698;13.322;2024-03-08T07:28:48;38.07;;;20.70;;
62903;SDS011;49000;50.698;13.322;2024-03-08T07:31:14;39.67;;;22.10;;
62903;SDS011;49000;50.698;13.322;2024-03-08T07:33:51;43.23;;;22.73;;
62903;SDS011;49000;50.698;13.322;2024-03-08T07:36:18;40.47;;;21.90;;
62903;SDS011;49000;50.698;13.322;2024-03-08T07:38:44;43.27;;;21.53;;
62903;SDS011;49000;50.698;13.322;2024-03-08T07:41:11;44.23;;;23.03;;
62903;SDS011;49000;50.698;13.322;2024-03-08T07:43:37;39.87;;;22.13;;
62903;SDS011;49000;50.698;13.322;2024-03-08T07:46:03;43.40;;;21.87;;
62903;SDS011;49000;50.698;13.322;2024-03-08T07:48:28;46.97;;;22.77;;
62903;SDS011;49000;50.698;13.322;2024-03-08T07:50:55;39.37;;;20.83;;
62903;SDS011;49000;50.698;13.322;2024-03-08T07:53:21;43.60;;;22.57;;
62903;SDS011;49000;50.698;13.322;2024-03-08T07:55:46;41.40;;;22.10;;
62903;SDS011;49000;50.698;13.322;2024-03-08T07:58:12;36.73;;;19.87;;
62903;SDS011;49000;50.698;13.322;2024-03-08T08:00:38;40.63;;;20.70;;
62903;SDS011;49000;50.698;13.322;2024-03-08T08:03:04;38.93;;;20.10;;
62903;SDS011;49000;50.698;13.322;2024-03-08T08:05:30;36.40;;;19.93;;
62903;SDS011;49000;50.698;13.322;2024-03-08T08:08:00;38.93;;;20.70;;
62903;SDS011;49000;50.698;13.322;2024-03-08T08:10:28;38.33;;;20.60;;
62903;SDS011;49000;50.698;13.322;2024-03-08T08:12:53;38.20;;;20.03;;
62903;SDS011;49000;50.698;13.322;2024-03-08T08:15:19;34.30;;;19.57;;
62903;SDS011;49000;50.698;13.322;2024-03-08T08:17:45;40.17;;;20.87;;
62903;SDS011;49000;50.698;13.322;2024-03-08T08:20:11;38.63;;;20.67;;
62903;SDS011;49000;50.698;13.322;2024-03-08T08:22:40;37.00;;;20.33;;
62903;SDS011;49000;50.698;13.322;2024-03-08T08:25:07;34.00;;;19.57;;
62903;SDS011;49000;50.698;13.322;2024-03-08T08:27:33;37.57;;;20.23;;
62903;SDS011;49000;50.698;13.322;2024-03-08T08:29:58;34.87;;;18.20;;
62903;SDS011;49000;50.698;13.322;2024-03-08T08:32:24;34.50;;;18.70;;
62903;SDS011;49000;50.698;13.322;2024-03-08T08:34:49;33.60;;;18.47;;
62903;SDS011;49000;50.698;13.322;2024-03-08T08:37:15;35.23;;;18.93;;
62903;SDS011;49000;50.698;13.322;2024-03-08T08:39:41;31.53;;;18.33;;
62903;SDS011;49000;50.698;13.322;2024-03-08T08:42:07;37.47;;;20.07;;
62903;SDS011;49000;50.698;13.322;2024-03-08T08:44:34;32.67;;;18.73;;
62903;SDS011;49000;50.698;13.322;2024-03-08T08:47:02;34.53;;;19.00;;
62903;SDS011;49000;50.698;13.322;2024-03-08T08:49:30;35.17;;;19.50;;
62903;SDS011;49000;50.698;13.322;2024-03-08T08:51:56;33.07;;;18.20;;
62903;SDS011;49000;50.698;13.322;2024-03-08T08:54:23;33.97;;;19.03;;
62903;SDS011;49000;50.698;13.322;2024-03-08T08:56:49;34.93;;;19.07;;
62903;SDS011;49000;50.698;13.322;2024-03-08T08:59:15;31.93;;;18.13;;
62903;SDS011;49000;50.698;13.322;2024-03-08T09:01:44;34.03;;;18.10;;
62903;SDS011;49000;50.698;13.322;2024-03-08T09:04:12;36.57;;;18.67;;
62903;SDS011;49000;50.698;13.322;2024-03-08T09:06:37;35.23;;;20.47;;
62903;SDS011;49000;50.698;13.322;2024-03-08T09:09:03;31.97;;;18.60;;
62903;SDS011;49000;50.698;13.322;2024-03-08T09:11:30;34.80;;;19.57;;
62903;SDS011;49000;50.698;13.322;2024-03-08T09:13:56;32.33;;;18.57;;
62903;SDS011;49000;50.698;13.322;2024-03-08T09:16:21;33.20;;;20.33;;
62903;SDS011;49000;50.698;13.322;2024-03-08T09:18:46;34.80;;;19.83;;
62903;SDS011;49000;50.698;13.322;2024-03-08T09:21:12;28.97;;;17.20;;
62903;SDS011;49000;50.698;13.322;2024-03-08T09:23:39;31.37;;;19.13;;
62903;SDS011;49000;50.698;13.322;2024-03-08T09:26:06;30.77;;;18.50;;
62903;SDS011;49000;50.698;13.322;2024-03-08T09:28:34;30.60;;;17.87;;
62903;SDS011;49000;50.698;13.322;2024-03-08T09:31:00;34.93;;;18.23;;
62903;SDS011;49000;50.698;13.322;2024-03-08T09:33:26;28.37;;;16.57;;
62903;SDS011;49000;50.698;13.322;2024-03-08T09:35:53;33.17;;;18.37;;
62903;SDS011;49000;50.698;13.322;2024-03-08T09:38:19;28.03;;;15.40;;
62903;SDS011;49000;50.698;13.322;2024-03-08T09:40:45;27.37;;;17.07;;
62903;SDS011;49000;50.698;13.322;2024-03-08T09:43:11;27.77;;;16.37;;
62903;SDS011;49000;50.698;13.322;2024-03-08T09:45:39;28.23;;;16.47;;
62903;SDS011;49000;50.698;13.322;2024-03-08T09:48:12;28.87;;;17.43;;
62903;SDS011;49000;50.698;13.322;2024-03-08T09:50:39;33.17;;;16.77;;
62903;SDS011;49000;50.698;13.322;2024-03-08T09:53:06;25.93;;;16.57;;
62903;SDS011;49000;50.698;13.322;2024-03-08T09:55:34;28.43;;;16.93;;
62903;SDS011;49000;50.698;13.322;2024-03-08T09:58:07;26.50;;;15.73;;
62903;SDS011;49000;50.698;13.322;2024-03-08T10:00:52;24.03;;;14.97;;
62903;SDS011;49000;50.698;13.322;2024-03-08T10:03:21;25.33;;;15.90;;
62903;SDS011;49000;50.698;13.322;2024-03-08T10:05:47;29.20;;;17.50;;
62903;SDS011;49000;50.698;13.322;2024-03-08T10:08:13;29.37;;;17.00;;
62903;SDS011;49000;50.698;13.322;2024-03-08T10:10:39;31.53;;;18.93;;
62903;SDS011;49000;50.698;13.322;2024-03-08T10:13:07;35.93;;;19.67;;
62903;SDS011;49000;50.698;13.322;2024-03-08T10:15:34;33.00;;;19.27;;
62903;SDS011;49000;50.698;13.322;2024-03-08T10:18:00;34.83;;;20.23;;
62903;SDS011;49000;50.698;13.322;2024-03-08T10:20:27;31.70;;;19.67;;
62903;SDS011;49000;50.698;13.322;2024-03-08T10:22:58;32.60;;;19.67;;
62903;SDS011;49000;50.698;13.322;2024-03-08T10:25:28;29.63;;;18.37;;
62903;SDS011;49000;50.698;13.322;2024-03-08T10:27:55;27.80;;;18.10;;
62903;SDS011;49000;50.698;13.322;2024-03-08T10:30:21;28.57;;;17.50;;
62903;SDS011;49000;50.698;13.322;2024-03-08T10:32:47;26.00;;;16.13;;
62903;SDS011;49000;50.698;13.322;2024-03-08T10:35:13;26.30;;;16.70;;
62903;SDS011;49000;50.698;13.322;2024-03-08T10:37:52;27.47;;;16.30;;
62903;SDS011;49000;50.698;13.322;2024-03-08T10:40:24;23.87;;;14.63;;
62903;SDS011;49000;50.698;13.322;2024-03-08T10:42:52;26.30;;;16.80;;
62903;SDS011;49000;50.698;13.322;2024-03-08T10:45:31;26.77;;;16.07;;
62903;SDS011;49000;50.698;13.322;2024-03-08T10:51:09;20.97;;;13.47;;
62903;SDS011;49000;50.698;13.322;2024-03-08T10:53:36;22.20;;;13.70;;
62903;SDS011;49000;50.698;13.322;2024-03-08T10:56:06;24.27;;;14.57;;
62903;SDS011;49000;50.698;13.322;2024-03-08T10:58:32;23.73;;;14.40;;
62903;SDS011;49000;50.698;13.322;2024-03-08T11:01:00;24.10;;;15.13;;
62903;SDS011;49000;50.698;13.322;2024-03-08T11:06:09;26.70;;;16.03;;
62903;SDS011;49000;50.698;13.322;2024-03-08T11:08:57;26.57;;;16.97;;
62903;SDS011;49000;50.698;13.322;2024-03-08T11:13:52;29.60;;;16.90;;
62903;SDS011;49000;50.698;13.322;2024-03-08T11:18:54;24.60;;;16.10;;
62903;SDS011;49000;50.698;13.322;2024-03-08T11:21:20;26.70;;;16.77;;
62903;SDS011;49000;50.698;13.322;2024-03-08T11:24:01;25.93;;;15.73;;
62903;SDS011;49000;50.698;13.322;2024-03-08T11:26:33;23.43;;;15.33;;
62903;SDS011;49000;50.698;13.322;2024-03-08T11:29:32;25.17;;;16.03;;
62903;SDS011;49000;50.698;13.322;2024-03-08T11:32:04;26.80;;;16.03;;
62903;SDS011;49000;50.698;13.322;2024-03-08T11:34:35;25.90;;;15.83;;
62903;SDS011;49000;50.698;13.322;2024-03-08T11:37:03;23.17;;;15.97;;
62903;SDS011;49000;50.698;13.322;2024-03-08T11:39:30;26.37;;;15.97;;
62903;SDS011;49000;50.698;13.322;2024-03-08T11:41:56;25.03;;;16.43;;
62903;SDS011;49000;50.698;13.322;2024-03-08T11:44:24;29.37;;;17.07;;
62903;SDS011;49000;50.698;13.322;2024-03-08T11:46:52;28.77;;;18.67;;
62903;SDS011;49000;50.698;13.322;2024-03-08T11:49:18;30.07;;;18.47;;
62903;SDS011;49000;50.698;13.322;2024-03-08T11:51:44;26.07;;;17.57;;
62903;SDS011;49000;50.698;13.322;2024-03-08T11:54:11;28.73;;;18.10;;
62903;SDS011;49000;50.698;13.322;2024-03-08T11:56:38;27.93;;;18.27;;
62903;SDS011;49000;50.698;13.322;2024-03-08T11:59:03;30.57;;;17.23;;
62903;SDS011;49000;50.698;13.322;2024-03-08T12:01:30;30.67;;;17.33;;
62903;SDS011;49000;50.698;13.322;2024-03-08T12:03:56;27.43;;;17.90;;
62903;SDS011;49000;50.698;13.322;2024-03-08T12:06:24;28.37;;;18.50;;
62903;SDS011;49000;50.698;13.322;2024-03-08T12:08:49;29.40;;;18.53;;
62903;SDS011;49000;50.698;13.322;2024-03-08T12:11:16;30.90;;;18.67;;
62903;SDS011;49000;50.698;13.322;2024-03-08T12:13:47;28.10;;;16.07;;
62903;SDS011;49000;50.698;13.322;2024-03-08T12:16:15;26.90;;;17.37;;
62903;SDS011;49000;50.698;13.322;2024-03-08T12:18:46;25.10;;;17.00;;
62903;SDS011;49000;50.698;13.322;2024-03-08T12:21:13;24.43;;;16.20;;
62903;SDS011;49000;50.698;13.322;2024-03-08T12:23:42;29.77;;;17.63;;
62903;SDS011;49000;50.698;13.322;2024-03-08T12:26:12;28.57;;;17.43;;
62903;SDS011;49000;50.698;13.322;2024-03-08T12:28:40;25.13;;;17.40;;
62903;SDS011;49000;50.698;13.322;2024-03-08T12:31:09;27.33;;;18.23;;
62903;SDS011;49000;50.698;13.322;2024-03-08T12:36:23;25.03;;;17.60;;
62903;SDS011;49000;50.698;13.322;2024-03-08T12:38:50;26.80;;;17.97;;
62903;SDS011;49000;50.698;13.322;2024-03-08T12:41:16;24.20;;;16.47;;
62903;SDS011;49000;50.698;13.322;2024-03-08T12:43:43;27.17;;;17.73;;
62903;SDS011;49000;50.698;13.322;2024-03-08T12:46:15;25.97;;;16.73;;
62903;SDS011;49000;50.698;13.322;2024-03-08T12:48:42;27.30;;;16.60;;
62903;SDS011;49000;50.698;13.322;2024-03-08T12:51:11;28.33;;;17.93;;
62903;SDS011;49000;50.698;13.322;2024-03-08T12:53:43;26.03;;;17.13;;
62903;SDS011;49000;50.698;13.322;2024-03-08T12:56:10;26.10;;;16.80;;
62903;SDS011;49000;50.698;13.322;2024-03-08T12:58:37;26.23;;;17.23;;
62903;SDS011;49000;50.698;13.322;2024-03-08T13:01:03;23.07;;;15.67;;
62903;SDS011;49000;50.698;13.322;2024-03-08T13:03:35;27.23;;;17.47;;
62903;SDS011;49000;50.698;13.322;2024-03-08T13:06:04;25.80;;;17.23;;
62903;SDS011;49000;50.698;13.322;2024-03-08T13:08:33;26.33;;;16.97;;
62903;SDS011;49000;50.698;13.322;2024-03-08T13:11:05;28.80;;;17.20;;
62903;SDS011;49000;50.698;13.322;2024-03-08T13:13:36;24.83;;;16.13;;
62903;SDS011;49000;50.698;13.322;2024-03-08T13:16:05;24.60;;;16.37;;
62903;SDS011;49000;50.698;13.322;2024-03-08T13:18:33;23.03;;;16.80;;
62903;SDS011;49000;50.698;13.322;2024-03-08T13:20:59;31.03;;;17.63;;
62903;SDS011;49000;50.698;13.322;2024-03-08T13:23:29;23.30;;;16.70;;
62903;SDS011;49000;50.698;13.322;2024-03-08T13:25:55;25.60;;;17.33;;
62903;SDS011;49000;50.698;13.322;2024-03-08T13:28:22;24.43;;;16.60;;
62903;SDS011;49000;50.698;13.322;2024-03-08T13:30:52;22.87;;;16.83;;
62903;SDS011;49000;50.698;13.322;2024-03-08T13:33:19;25.70;;;16.87;;
62903;SDS011;49000;50.698;13.322;2024-03-08T13:35:45;26.43;;;17.13;;
62903;SDS011;49000;50.698;13.322;2024-03-08T13:38:11;23.90;;;16.77;;
62903;SDS011;49000;50.698;13.322;2024-03-08T13:40:38;23.80;;;16.73;;
62903;SDS011;49000;50.698;13.322;2024-03-08T13:43:05;25.53;;;16.87;;
62903;SDS011;49000;50.698;13.322;2024-03-08T13:45:32;26.53;;;16.63;;
62903;SDS011;49000;50.698;13.322;2024-03-08T13:47:58;22.87;;;16.67;;
62903;SDS011;49000;50.698;13.322;2024-03-08T13:50:24;27.03;;;16.60;;
62903;SDS011;49000;50.698;13.322;2024-03-08T13:52:51;24.17;;;16.83;;
62903;SDS011;49000;50.698;13.322;2024-03-08T13:55:18;26.17;;;16.93;;
62903;SDS011;49000;50.698;13.322;2024-03-08T13:57:44;25.13;;;17.90;;
62903;SDS011;49000;50.698;13.322;2024-03-08T14:00:10;26.97;;;18.53;;
62903;SDS011;49000;50.698;13.322;2024-03-08T14:02:37;28.70;;;20.30;;
62903;SDS011;49000;50.698;13.322;2024-03-08T14:05:05;28.50;;;19.40;;
62903;SDS011;49000;50.698;13.322;2024-03-08T14:07:33;25.87;;;17.83;;
62903;SDS011;49000;50.698;13.322;2024-03-08T14:09:58;28.67;;;19.33;;
62903;SDS011;49000;50.698;13.322;2024-03-08T14:12:24;24.67;;;17.63;;
62903;SDS011;49000;50.698;13.322;2024-03-08T14:14:51;27.23;;;17.70;;
62903;SDS011;49000;50.698;13.322;2024-03-08T14:17:17;23.87;;;17.73;;
62903;SDS011;49000;50.698;13.322;2024-03-08T14:19:43;24.83;;;16.07;;
62903;SDS011;49000;50.698;13.322;2024-03-08T14:22:08;22.57;;;16.20;;
62903;SDS011;49000;50.698;13.322;2024-03-08T14:24:38;25.50;;;17.43;;